createdAt,value
2022-08-12T00:00:34.291Z,23.77
2022-08-12T00:03:21.011Z,23.77
2022-08-12T00:06:06.125Z,23.76
2022-08-12T00:08:51.429Z,23.76
2022-08-12T00:11:36.771Z,23.77
2022-08-12T00:14:21.841Z,23.76
2022-08-12T00:17:07.283Z,23.76
2022-08-12T00:19:52.219Z,23.76
2022-08-12T00:22:37.755Z,23.75
2022-08-12T00:25:50.827Z,23.70
2022-08-12T00:28:27.805Z,23.62
2022-08-12T00:31:12.675Z,23.59
2022-08-12T00:33:57.851Z,23.51
2022-08-12T00:36:45.050Z,23.48
2022-08-12T00:39:30.297Z,23.45
2022-08-12T00:42:11.903Z,23.44
2022-08-12T00:44:42.405Z,23.44
2022-08-12T00:47:24.736Z,23.43
2022-08-12T00:49:52.147Z,23.39
2022-08-12T00:52:18.914Z,23.37
2022-08-12T00:54:50.137Z,23.33
2022-08-12T00:57:17.405Z,23.32
2022-08-12T00:59:47.717Z,23.33
2022-08-12T01:02:16.126Z,23.31
2022-08-12T01:05:01.775Z,23.39
2022-08-12T01:07:47.123Z,23.45
2022-08-12T01:10:32.592Z,23.48
2022-08-12T01:13:07.371Z,23.48
2022-08-12T01:15:45.980Z,23.51
2022-08-12T01:18:13.274Z,23.51
2022-08-12T01:20:41.049Z,23.50
2022-08-12T01:23:31.761Z,23.53
2022-08-12T01:25:58.106Z,23.52
2022-08-12T01:28:24.524Z,23.52
2022-08-12T01:30:50.871Z,23.53
2022-08-12T01:33:17.595Z,23.53
2022-08-12T01:35:45.162Z,23.53
2022-08-12T01:38:29.736Z,23.53
2022-08-12T01:40:56.555Z,23.53
2022-08-12T01:43:24.651Z,23.53
2022-08-12T01:45:57.458Z,23.53
2022-08-12T01:48:45.698Z,23.54
2022-08-12T01:52:14.653Z,23.54
2022-08-12T01:54:09.551Z,23.53
2022-08-12T01:56:41.835Z,23.54
2022-08-12T01:59:26.598Z,23.54
2022-08-12T02:01:53.016Z,23.54
2022-08-12T02:04:53.002Z,23.52
2022-08-12T02:07:42.103Z,23.53
2022-08-12T02:10:51.214Z,23.53
2022-08-12T02:13:43.831Z,23.53
2022-08-12T02:16:36.298Z,23.52
2022-08-12T02:19:22.659Z,23.52
2022-08-12T02:22:04.815Z,23.52
2022-08-12T02:24:32.078Z,23.52
2022-08-12T02:26:58.476Z,23.52
2022-08-12T02:29:24.839Z,23.50
2022-08-12T02:31:52.602Z,23.49
2022-08-12T02:34:18.966Z,23.48
2022-08-12T02:36:45.594Z,23.47
2022-08-12T02:39:15.834Z,23.48
2022-08-12T02:41:43.023Z,23.47
2022-08-12T02:44:09.888Z,23.47
2022-08-12T02:46:36.243Z,23.47
2022-08-12T02:49:09.702Z,23.46
2022-08-12T02:51:39.540Z,23.46
2022-08-12T02:54:06.579Z,23.45
2022-08-12T02:56:41.632Z,23.45
2022-08-12T02:59:10.546Z,23.45
2022-08-12T03:01:47.904Z,23.44
2022-08-12T03:04:20.663Z,23.44
2022-08-12T03:07:06.333Z,23.45
2022-08-12T03:09:35.846Z,23.42
2022-08-12T03:12:20.462Z,23.42
2022-08-12T03:14:49.473Z,23.42
2022-08-12T03:17:16.887Z,23.42
2022-08-12T03:20:09.474Z,23.40
2022-08-12T03:22:32.007Z,23.42
2022-08-12T03:25:00.038Z,23.40
2022-08-12T03:27:26.434Z,23.40
2022-08-12T03:29:52.793Z,23.40
2022-08-12T03:32:35.112Z,23.39
2022-08-12T03:35:07.217Z,23.39
2022-08-12T03:37:33.654Z,23.37
2022-08-12T03:40:00.095Z,23.38
2022-08-12T03:42:40.364Z,23.37
2022-08-12T03:45:28.193Z,23.37
2022-08-12T03:48:18.905Z,23.37
2022-08-12T03:51:04.686Z,23.37
2022-08-12T03:53:49.573Z,23.37
2022-08-12T03:56:34.634Z,23.36
2022-08-12T03:59:20.110Z,23.34
2022-08-12T04:01:57.218Z,23.35
2022-08-12T04:04:33.838Z,23.34
2022-08-12T04:07:10.530Z,23.34
2022-08-12T04:09:38.453Z,23.33
2022-08-12T04:12:23.640Z,23.33
2022-08-12T04:14:52.776Z,23.33
2022-08-12T04:17:19.141Z,23.32
2022-08-12T04:19:48.307Z,23.32
2022-08-12T04:22:14.936Z,23.32
2022-08-12T04:24:41.553Z,23.31
2022-08-12T04:27:08.593Z,23.31
2022-08-12T04:30:16.786Z,23.30
2022-08-12T04:32:21.799Z,23.29
2022-08-12T04:34:48.149Z,23.30
2022-08-12T04:37:15.983Z,23.30
2022-08-12T04:39:42.399Z,23.30
2022-08-12T04:42:08.797Z,23.30
2022-08-12T04:44:35.163Z,23.30
2022-08-12T04:47:01.526Z,23.29
2022-08-12T04:49:28.130Z,23.28
2022-08-12T04:51:59.497Z,23.28
2022-08-12T04:54:26.331Z,23.26
2022-08-12T04:57:03.487Z,23.27
2022-08-12T04:59:31.629Z,23.28
2022-08-12T05:02:16.721Z,23.27
2022-08-12T05:04:49.764Z,23.27
2022-08-12T05:07:16.141Z,23.27
2022-08-12T05:09:58.967Z,23.27
2022-08-12T05:12:34.861Z,23.26
2022-08-12T05:15:01.300Z,23.25
2022-08-12T05:17:28.019Z,23.25
2022-08-12T05:19:54.753Z,23.26
2022-08-12T05:22:23.594Z,23.27
2022-08-12T05:24:49.953Z,23.27
2022-08-12T05:27:17.877Z,23.26
2022-08-12T05:30:07.638Z,23.27
2022-08-12T05:32:35.517Z,23.28
2022-08-12T05:35:06.358Z,23.28
2022-08-12T05:37:36.600Z,23.28
2022-08-12T05:40:10.092Z,23.27
2022-08-12T05:42:37.158Z,23.28
2022-08-12T05:45:03.578Z,23.28
2022-08-12T05:47:36.682Z,23.29
2022-08-12T05:50:16.339Z,23.27
2022-08-12T05:52:42.795Z,23.29
2022-08-12T05:55:10.306Z,23.29
2022-08-12T05:57:38.129Z,23.29
2022-08-12T06:00:05.075Z,23.29
2022-08-12T06:02:37.977Z,23.28
2022-08-12T06:05:06.485Z,23.30
2022-08-12T06:07:59.447Z,23.29
2022-08-12T06:10:32.360Z,23.29
2022-08-12T06:13:00.135Z,23.30
2022-08-12T06:15:26.543Z,23.30
2022-08-12T06:17:53.423Z,23.30
2022-08-12T06:20:27.623Z,23.30
2022-08-12T06:22:56.516Z,23.31
2022-08-12T06:25:22.888Z,23.30
2022-08-12T06:28:07.973Z,23.31
2022-08-12T06:30:38.649Z,23.30
2022-08-12T06:33:24.759Z,23.30
2022-08-12T06:35:52.306Z,23.30
2022-08-12T06:38:25.227Z,23.30
2022-08-12T06:41:13.900Z,23.30
2022-08-12T06:44:05.124Z,23.29
2022-08-12T06:46:27.110Z,23.29
2022-08-12T06:48:57.408Z,23.30
2022-08-12T06:51:24.053Z,23.30
2022-08-12T06:53:50.406Z,23.29
2022-08-12T06:56:16.817Z,23.30
2022-08-12T06:58:44.467Z,23.31
2022-08-12T07:01:10.897Z,23.30
2022-08-12T07:03:38.314Z,23.31
2022-08-12T07:06:05.495Z,23.31
2022-08-12T07:08:32.736Z,23.31
2022-08-12T07:10:59.782Z,23.30
2022-08-12T07:13:30.819Z,23.30
2022-08-12T07:15:58.652Z,23.30
2022-08-12T07:18:28.919Z,23.30
2022-08-12T07:20:55.284Z,23.30
2022-08-12T07:23:21.634Z,23.30
2022-08-12T07:25:47.994Z,23.31
2022-08-12T07:28:18.433Z,23.32
2022-08-12T07:30:45.384Z,23.32
2022-08-12T07:33:11.889Z,23.33
2022-08-12T07:35:50.970Z,23.32
2022-08-12T07:38:31.337Z,23.31
2022-08-12T07:41:02.705Z,23.33
2022-08-12T07:43:30.051Z,23.33
2022-08-12T07:45:56.658Z,23.33
2022-08-12T07:48:23.033Z,23.33
2022-08-12T07:50:50.505Z,23.33
2022-08-12T07:53:17.062Z,23.34
2022-08-12T07:55:43.503Z,23.32
2022-08-12T07:58:09.850Z,23.34
2022-08-12T08:00:37.082Z,23.33
2022-08-12T08:03:03.445Z,23.34
2022-08-12T08:05:37.109Z,23.33
2022-08-12T08:08:12.223Z,23.34
2022-08-12T08:10:38.579Z,23.33
2022-08-12T08:13:06.525Z,23.35
2022-08-12T08:16:01.266Z,23.35
2022-08-12T08:18:26.876Z,23.34
2022-08-12T08:20:53.970Z,23.34
2022-08-12T08:23:20.330Z,23.35
2022-08-12T08:25:48.097Z,23.33
2022-08-12T08:28:16.218Z,23.35
2022-08-12T08:30:43.785Z,23.35
2022-08-12T08:33:23.011Z,23.35
2022-08-12T08:35:51.236Z,23.35
2022-08-12T08:38:32.467Z,23.35
2022-08-12T08:42:19.186Z,23.35
2022-08-12T08:44:06.654Z,23.35
2022-08-12T08:46:37.305Z,23.36
2022-08-12T08:49:04.895Z,23.36
2022-08-12T08:51:31.250Z,23.36
2022-08-12T08:53:57.611Z,23.37
2022-08-12T08:56:24.147Z,23.36
2022-08-12T08:58:50.507Z,23.36
2022-08-12T09:01:22.461Z,23.37
2022-08-12T09:05:11.973Z,23.37
2022-08-12T09:06:37.035Z,23.36
2022-08-12T09:09:13.096Z,23.35
2022-08-12T09:12:10.729Z,23.36
2022-08-12T09:14:42.584Z,23.38
2022-08-12T09:17:13.809Z,23.37
2022-08-12T09:19:50.225Z,23.37
2022-08-12T09:22:23.027Z,23.37
2022-08-12T09:24:55.130Z,23.38
2022-08-12T09:27:25.740Z,23.37
2022-08-12T09:30:11.841Z,23.38
2022-08-12T09:33:04.460Z,23.39
2022-08-12T09:35:33.503Z,23.37
2022-08-12T09:38:28.568Z,23.38
2022-08-12T09:42:07.686Z,23.39
2022-08-12T09:44:04.843Z,23.39
2022-08-12T09:46:32.114Z,23.39
2022-08-12T09:49:01.145Z,23.38
2022-08-12T09:51:38.247Z,23.39
2022-08-12T09:54:31.641Z,23.39
2022-08-12T09:57:03.836Z,23.40
2022-08-12T10:00:16.221Z,23.40
2022-08-12T10:02:42.705Z,23.39
2022-08-12T10:05:17.841Z,23.40
2022-08-12T10:07:46.861Z,23.41
2022-08-12T10:10:22.686Z,23.40
2022-08-12T10:13:35.260Z,23.40
2022-08-12T10:16:05.342Z,23.40
2022-08-12T10:18:32.789Z,23.40
2022-08-12T10:21:05.020Z,23.42
2022-08-12T10:23:40.213Z,23.42
2022-08-12T10:26:37.279Z,23.42
2022-08-12T10:30:37.984Z,23.42
2022-08-12T10:32:20.690Z,23.42
2022-08-12T10:34:53.637Z,23.43
2022-08-12T10:38:34.772Z,23.43
2022-08-12T10:40:15.616Z,23.44
2022-08-12T10:43:05.123Z,23.41
2022-08-12T10:45:31.758Z,23.42
2022-08-12T10:48:07.117Z,23.42
2022-08-12T10:51:02.220Z,23.43
2022-08-12T10:53:44.173Z,23.44
2022-08-12T10:56:18.594Z,23.45
2022-08-12T10:58:46.832Z,23.45
2022-08-12T11:01:49.911Z,23.46
2022-08-12T11:04:41.219Z,23.45
2022-08-12T11:08:37.114Z,23.45
2022-08-12T11:09:59.820Z,23.46
2022-08-12T11:12:57.874Z,23.45
2022-08-12T11:15:20.889Z,23.45
2022-08-12T11:17:53.333Z,23.46
2022-08-12T11:20:34.690Z,23.46
2022-08-12T11:23:03.794Z,23.46
2022-08-12T11:25:55.380Z,23.46
2022-08-12T11:28:17.799Z,23.45
2022-08-12T11:31:00.079Z,23.46
2022-08-12T11:34:05.822Z,23.46
2022-08-12T11:36:18.027Z,23.47
2022-08-12T11:38:50.709Z,23.47
2022-08-12T11:41:18.168Z,23.47
2022-08-12T11:44:27.554Z,23.46
2022-08-12T11:46:47.014Z,23.47
2022-08-12T11:53:03.263Z,23.47
2022-08-12T11:55:30.541Z,23.45
2022-08-12T11:58:07.475Z,23.47
2022-08-12T12:03:23.064Z,23.46
2022-08-12T12:05:49.618Z,23.48
2022-08-12T12:08:41.241Z,23.48
2022-08-12T12:11:09.614Z,23.50
2022-08-12T12:14:07.521Z,23.51
2022-08-12T12:16:28.303Z,23.50
2022-08-12T12:18:56.370Z,23.49
2022-08-12T12:21:47.323Z,23.49
2022-08-12T12:24:09.841Z,23.49
2022-08-12T12:26:37.036Z,23.48
2022-08-12T12:29:07.011Z,23.50
2022-08-12T12:32:09.863Z,23.49
2022-08-12T12:35:14.197Z,23.50
2022-08-12T12:38:03.372Z,23.50
2022-08-12T12:40:16.960Z,23.51
2022-08-12T12:42:55.438Z,23.51
2022-08-12T12:45:26.035Z,23.51
2022-08-12T12:48:05.773Z,23.51
2022-08-12T12:50:35.709Z,23.52
2022-08-12T12:53:10.056Z,23.51
2022-08-12T12:55:56.419Z,23.52
2022-08-12T12:58:24.593Z,23.51
2022-08-12T13:00:53.230Z,23.52
2022-08-12T13:03:23.310Z,23.52
2022-08-12T13:06:00.679Z,23.54
2022-08-12T13:09:03.040Z,23.52
2022-08-12T13:11:41.668Z,23.52
2022-08-12T13:14:28.294Z,23.53
2022-08-12T13:16:56.346Z,23.54
2022-08-12T13:19:25.475Z,23.54
2022-08-12T13:22:21.714Z,23.54
2022-08-12T13:24:56.056Z,23.53
2022-08-12T13:27:28.373Z,23.54
2022-08-12T13:30:02.011Z,23.54
2022-08-12T13:32:40.608Z,23.55
2022-08-12T13:35:20.172Z,23.57
2022-08-12T13:37:54.655Z,23.55
2022-08-12T13:40:21.799Z,23.56
2022-08-12T13:42:53.224Z,23.56
2022-08-12T13:45:19.612Z,23.55
2022-08-12T13:47:55.962Z,23.56
2022-08-12T13:50:43.442Z,23.56
2022-08-12T13:53:24.816Z,23.57
2022-08-12T13:56:03.515Z,23.58
2022-08-12T13:58:30.542Z,23.58
2022-08-12T14:00:58.002Z,23.58
2022-08-12T14:03:28.003Z,23.57
2022-08-12T14:05:59.347Z,23.59
2022-08-12T14:08:25.878Z,23.59
2022-08-12T14:11:00.681Z,23.59
2022-08-12T14:14:03.782Z,23.59
2022-08-12T14:16:16.778Z,23.59
2022-08-12T14:19:03.386Z,23.59
2022-08-12T14:21:59.098Z,23.61
2022-08-12T14:24:18.992Z,23.61
2022-08-12T14:26:53.894Z,23.60
2022-08-12T14:29:21.769Z,23.60
2022-08-12T14:32:07.558Z,23.61
2022-08-12T14:34:42.846Z,23.61
2022-08-12T14:37:13.100Z,23.62
2022-08-12T14:39:57.021Z,23.63
2022-08-12T14:42:23.614Z,23.61
2022-08-12T14:44:59.656Z,23.61
2022-08-12T14:47:29.139Z,23.62
2022-08-12T14:50:41.732Z,23.63
2022-08-12T14:54:44.569Z,23.61
2022-08-12T14:58:20.103Z,23.67
2022-08-12T15:01:05.282Z,23.69
2022-08-12T15:03:52.952Z,23.66
2022-08-12T15:06:43.755Z,23.63
2022-08-12T15:09:06.877Z,23.67
2022-08-12T15:11:54.553Z,23.67
2022-08-12T15:14:22.986Z,23.67
2022-08-12T15:16:49.979Z,23.68
2022-08-12T15:20:11.037Z,23.68
2022-08-12T15:22:38.644Z,23.67
2022-08-12T15:24:49.341Z,23.68
2022-08-12T15:27:15.738Z,23.69
2022-08-12T15:29:52.320Z,23.69
2022-08-12T15:32:31.800Z,23.68
2022-08-12T15:35:00.364Z,23.69
2022-08-12T15:38:08.637Z,23.69
2022-08-12T15:40:13.416Z,23.69
2022-08-12T15:42:39.830Z,23.70
2022-08-12T15:45:08.739Z,23.71
2022-08-12T15:47:50.095Z,23.69
2022-08-12T15:50:23.123Z,23.71
2022-08-12T15:52:50.174Z,23.72
2022-08-12T15:55:16.656Z,23.72
2022-08-12T15:58:12.884Z,23.73
2022-08-12T16:01:19.462Z,23.73
2022-08-12T16:03:59.148Z,23.68
2022-08-12T16:06:52.106Z,23.67
2022-08-12T16:09:17.331Z,23.72
2022-08-12T16:11:48.136Z,23.75
2022-08-12T16:14:15.511Z,23.76
2022-08-12T16:16:42.581Z,23.76
2022-08-12T16:20:01.729Z,23.78
2022-08-12T16:21:58.153Z,23.78
2022-08-12T16:24:25.430Z,23.80
2022-08-12T16:27:17.719Z,23.78
2022-08-12T16:29:53.530Z,23.78
2022-08-12T16:35:08.144Z,23.79
2022-08-12T16:38:24.361Z,23.78
2022-08-12T16:40:29.355Z,23.79
2022-08-12T16:43:02.218Z,23.80
2022-08-12T16:46:23.204Z,23.79
2022-08-12T16:48:34.003Z,23.80
2022-08-12T16:51:01.393Z,23.79
2022-08-12T16:53:43.431Z,23.79
2022-08-12T16:56:12.386Z,23.80
2022-08-12T16:58:39.764Z,23.81
2022-08-12T17:01:11.827Z,23.82
2022-08-12T17:03:47.248Z,23.82
2022-08-12T17:06:22.327Z,23.82
2022-08-12T17:08:55.549Z,23.82
2022-08-12T17:11:22.223Z,23.82
2022-08-12T17:13:53.609Z,23.82
2022-08-12T17:16:21.126Z,23.83
2022-08-12T17:18:57.854Z,23.83
2022-08-12T17:21:40.937Z,23.85
2022-08-12T17:24:15.095Z,23.85
2022-08-12T17:26:44.846Z,23.86
2022-08-12T17:29:16.766Z,23.85
2022-08-12T17:32:00.381Z,23.85
2022-08-12T17:34:47.143Z,23.86
2022-08-12T17:37:14.398Z,23.87
2022-08-12T17:40:10.070Z,23.87
2022-08-12T17:42:34.557Z,23.87
2022-08-12T17:45:01.620Z,23.86
2022-08-12T17:48:01.235Z,23.88
2022-08-12T17:50:14.550Z,23.87
2022-08-12T17:52:42.871Z,23.88
2022-08-12T17:55:44.667Z,23.88
2022-08-12T17:58:04.813Z,23.88
2022-08-12T18:00:31.962Z,23.89
2022-08-12T18:03:00.322Z,23.89
2022-08-12T18:05:43.470Z,23.88
2022-08-12T18:08:15.317Z,23.90
2022-08-12T18:11:11.512Z,23.89
2022-08-12T18:13:41.097Z,23.92
2022-08-12T18:16:12.763Z,23.91
2022-08-12T18:18:39.634Z,23.85
2022-08-12T18:21:08.535Z,23.87
2022-08-12T18:23:35.142Z,23.84
2022-08-12T18:26:23.066Z,23.83
2022-08-12T18:28:51.807Z,23.87
2022-08-12T18:31:18.953Z,23.85
2022-08-12T18:33:46.032Z,23.85
2022-08-12T18:36:13.213Z,23.84
2022-08-12T18:38:39.909Z,23.85
2022-08-12T18:41:25.592Z,23.86
2022-08-12T18:44:04.551Z,23.87
2022-08-12T18:46:45.779Z,23.90
2022-08-12T18:49:18.780Z,23.88
2022-08-12T18:51:55.558Z,23.90
2022-08-12T18:54:34.783Z,23.91
2022-08-12T18:57:03.753Z,23.91
2022-08-12T19:00:01.172Z,23.89
2022-08-12T19:02:22.441Z,23.88
2022-08-12T19:04:49.216Z,23.88
2022-08-12T19:07:23.421Z,23.88
2022-08-12T19:09:58.727Z,23.87
2022-08-12T19:12:57.583Z,23.87
2022-08-12T19:15:25.617Z,23.87
2022-08-12T19:18:00.869Z,23.90
2022-08-12T19:20:32.953Z,23.91
2022-08-12T19:23:08.308Z,23.91
2022-08-12T19:26:10.564Z,23.89
2022-08-12T19:28:38.518Z,23.89
2022-08-12T19:31:44.767Z,23.88
2022-08-12T19:37:27.297Z,23.90
2022-08-12T19:40:10.091Z,23.90
2022-08-12T19:42:48.458Z,23.90
2022-08-12T19:45:20.014Z,23.90
2022-08-12T19:47:48.675Z,23.90
2022-08-12T19:50:19.852Z,23.90
2022-08-12T19:52:46.748Z,23.91
2022-08-12T19:55:19.459Z,23.91
2022-08-12T19:58:02.376Z,23.90
2022-08-12T20:00:30.656Z,23.91
2022-08-12T20:03:00.440Z,23.92
2022-08-12T20:06:06.140Z,23.93
2022-08-12T20:08:13.993Z,23.97
2022-08-12T20:10:53.061Z,23.95
2022-08-12T20:13:26.933Z,23.94
2022-08-12T20:16:03.814Z,23.93
2022-08-12T20:18:53.403Z,23.93
2022-08-12T20:21:24.394Z,23.94
2022-08-12T20:24:00.511Z,23.94
2022-08-12T20:26:27.527Z,23.96
2022-08-12T20:28:54.765Z,23.98
2022-08-12T20:31:21.187Z,24.00
2022-08-12T20:33:50.984Z,24.08
2022-08-12T20:36:41.552Z,24.08
2022-08-12T20:39:37.459Z,24.07
2022-08-12T20:41:58.575Z,24.04
2022-08-12T20:44:26.474Z,24.05
2022-08-12T20:46:55.787Z,24.05
2022-08-12T20:49:24.724Z,24.06
2022-08-12T20:51:55.957Z,24.11
2022-08-12T20:54:22.565Z,24.11
2022-08-12T20:56:48.930Z,24.12
2022-08-12T20:59:20.369Z,24.07
2022-08-12T21:01:48.767Z,24.06
2022-08-12T21:04:34.366Z,24.06
2022-08-12T21:07:08.669Z,24.07
2022-08-12T21:09:40.698Z,24.09
2022-08-12T21:12:27.399Z,24.09
2022-08-12T21:15:00.766Z,24.08
2022-08-12T21:18:08.156Z,24.07
2022-08-12T21:20:32.063Z,24.09
2022-08-12T21:22:58.771Z,24.08
2022-08-12T21:25:44.640Z,24.09
2022-08-12T21:28:12.800Z,24.08
2022-08-12T21:30:55.125Z,24.09
2022-08-12T21:33:31.038Z,24.09
2022-08-12T21:35:58.022Z,24.09
2022-08-12T21:38:30.550Z,24.08
2022-08-12T21:41:01.441Z,24.09
2022-08-12T21:43:38.966Z,24.10
2022-08-12T21:46:14.987Z,24.09
2022-08-12T21:49:02.570Z,24.09
2022-08-12T21:51:49.644Z,24.09
2022-08-12T21:54:21.737Z,24.09
2022-08-12T21:56:48.581Z,24.09
2022-08-12T21:59:16.739Z,24.12
2022-08-12T22:01:48.395Z,24.15
2022-08-12T22:04:34.401Z,24.15
2022-08-12T22:07:00.764Z,24.16
2022-08-12T22:09:28.052Z,24.15
2022-08-12T22:11:59.885Z,24.15
2022-08-12T22:14:27.069Z,24.14
2022-08-12T22:16:54.232Z,24.15
2022-08-12T22:19:21.461Z,24.15
2022-08-12T22:21:53.427Z,24.15
2022-08-12T22:24:26.366Z,24.15
2022-08-12T22:26:56.499Z,24.14
2022-08-12T22:29:41.951Z,24.15
2022-08-12T22:32:11.409Z,24.17
2022-08-12T22:34:38.520Z,24.15
2022-08-12T22:37:05.702Z,24.14
2022-08-12T22:39:37.879Z,24.15
2022-08-12T22:42:41.548Z,24.15
2022-08-12T22:45:26.517Z,24.15
2022-08-12T22:47:55.861Z,24.15
2022-08-12T22:50:28.534Z,24.15
2022-08-12T22:53:15.147Z,24.14
2022-08-12T22:55:59.523Z,24.15
2022-08-12T22:58:31.900Z,24.15
2022-08-12T23:00:58.652Z,24.15
2022-08-12T23:03:49.036Z,24.14
2022-08-12T23:06:16.567Z,24.15
2022-08-12T23:08:43.461Z,24.14
2022-08-12T23:11:09.829Z,24.15
2022-08-12T23:13:45.703Z,24.14
2022-08-12T23:16:27.789Z,24.14
2022-08-12T23:18:58.838Z,24.14
2022-08-12T23:21:25.989Z,24.14
2022-08-12T23:24:10.218Z,24.15
2022-08-12T23:26:56.082Z,24.15
2022-08-12T23:29:30.065Z,24.14
2022-08-12T23:32:10.834Z,24.15
2022-08-12T23:34:37.377Z,24.14
2022-08-12T23:37:04.464Z,24.14
2022-08-12T23:40:13.830Z,24.13
2022-08-12T23:42:19.510Z,24.16
2022-08-12T23:44:48.589Z,24.14
2022-08-12T23:47:19.422Z,24.14
2022-08-12T23:49:56.981Z,24.14
2022-08-12T23:52:25.390Z,24.14
2022-08-12T23:55:24.405Z,24.16
2022-08-12T23:57:51.203Z,24.14
